sensor_id;sensor_type;location;lat;lon;timestamp;P1;durP1;ratioP1;P2;durP2;ratioP2
13012;SDS011;22580;57.670;12.006;2023-06-04T00:02:20;0.20;;;0.20;;
13012;SDS011;22580;57.670;12.006;2023-06-04T00:04:47;0.20;;;0.20;;
13012;SDS011;22580;57.670;12.006;2023-06-04T00:07:14;0.20;;;0.20;;
13012;SDS011;22580;57.670;12.006;2023-06-04T00:09:41;0.20;;;0.20;;
13012;SDS011;22580;57.670;12.006;2023-06-04T00:12:09;0.10;;;0.10;;
13012;SDS011;22580;57.670;12.006;2023-06-04T00:14:37;0.20;;;0.20;;
13012;SDS011;22580;57.670;12.006;2023-06-04T00:17:04;0.10;;;0.10;;
13012;SDS011;22580;57.670;12.006;2023-06-04T00:19:44;0.10;;;0.10;;
13012;SDS011;22580;57.670;12.006;2023-06-04T00:22:11;0.20;;;0.20;;
13012;SDS011;22580;57.670;12.006;2023-06-04T00:24:38;0.10;;;0.10;;
13012;SDS011;22580;57.670;12.006;2023-06-04T00:27:06;0.20;;;0.20;;
13012;SDS011;22580;57.670;12.006;2023-06-04T00:29:34;0.20;;;0.20;;
13012;SDS011;22580;57.670;12.006;2023-06-04T00:32:02;0.10;;;0.10;;
13012;SDS011;22580;57.670;12.006;2023-06-04T00:34:30;0.20;;;0.20;;
13012;SDS011;22580;57.670;12.006;2023-06-04T00:36:57;0.20;;;0.20;;
13012;SDS011;22580;57.670;12.006;2023-06-04T00:39:26;0.22;;;0.22;;
13012;SDS011;22580;57.670;12.006;2023-06-04T00:41:54;0.23;;;0.20;;
13012;SDS011;22580;57.670;12.006;2023-06-04T00:44:21;0.20;;;0.20;;
13012;SDS011;22580;57.670;12.006;2023-06-04T00:46:50;0.20;;;0.20;;
13012;SDS011;22580;57.670;12.006;2023-06-04T00:49:20;0.20;;;0.20;;
13012;SDS011;22580;57.670;12.006;2023-06-04T00:51:47;0.30;;;0.30;;
13012;SDS011;22580;57.670;12.006;2023-06-04T00:54:14;0.40;;;0.40;;
13012;SDS011;22580;57.670;12.006;2023-06-04T00:56:43;0.30;;;0.30;;
13012;SDS011;22580;57.670;12.006;2023-06-04T00:59:10;0.40;;;0.40;;
13012;SDS011;22580;57.670;12.006;2023-06-04T01:01:39;0.43;;;0.30;;
13012;SDS011;22580;57.670;12.006;2023-06-04T01:04:12;0.30;;;0.30;;
13012;SDS011;22580;57.670;12.006;2023-06-04T01:06:45;0.40;;;0.40;;
13012;SDS011;22580;57.670;12.006;2023-06-04T01:09:16;0.30;;;0.30;;
13012;SDS011;22580;57.670;12.006;2023-06-04T01:11:43;0.30;;;0.30;;
13012;SDS011;22580;57.670;12.006;2023-06-04T01:14:10;0.20;;;0.20;;
13012;SDS011;22580;57.670;12.006;2023-06-04T01:16:39;0.23;;;0.20;;
13012;SDS011;22580;57.670;12.006;2023-06-04T01:19:14;0.30;;;0.30;;
13012;SDS011;22580;57.670;12.006;2023-06-04T01:22:04;0.40;;;0.30;;
13012;SDS011;22580;57.670;12.006;2023-06-04T01:24:46;0.10;;;0.10;;
13012;SDS011;22580;57.670;12.006;2023-06-04T01:27:20;0.20;;;0.20;;
13012;SDS011;22580;57.670;12.006;2023-06-04T01:29:49;0.20;;;0.20;;
13012;SDS011;22580;57.670;12.006;2023-06-04T01:32:16;0.30;;;0.20;;
13012;SDS011;22580;57.670;12.006;2023-06-04T01:34:44;0.20;;;0.20;;
13012;SDS011;22580;57.670;12.006;2023-06-04T01:37:13;0.17;;;0.17;;
13012;SDS011;22580;57.670;12.006;2023-06-04T01:39:41;0.10;;;0.10;;
13012;SDS011;22580;57.670;12.006;2023-06-04T01:42:08;0.10;;;0.03;;
13012;SDS011;22580;57.670;12.006;2023-06-04T01:44:35;0.10;;;0.10;;
13012;SDS011;22580;57.670;12.006;2023-06-04T01:47:03;0.10;;;0.10;;
13012;SDS011;22580;57.670;12.006;2023-06-04T01:49:30;0.10;;;0.10;;
13012;SDS011;22580;57.670;12.006;2023-06-04T01:51:56;0.10;;;0.10;;
13012;SDS011;22580;57.670;12.006;2023-06-04T01:54:25;0.20;;;0.20;;
13012;SDS011;22580;57.670;12.006;2023-06-04T01:56:52;0.20;;;0.20;;
13012;SDS011;22580;57.670;12.006;2023-06-04T01:59:19;0.10;;;0.10;;
13012;SDS011;22580;57.670;12.006;2023-06-04T02:01:46;0.17;;;0.17;;
13012;SDS011;22580;57.670;12.006;2023-06-04T02:04:13;0.20;;;0.20;;
13012;SDS011;22580;57.670;12.006;2023-06-04T02:06:40;0.00;;;0.00;;
13012;SDS011;22580;57.670;12.006;2023-06-04T02:09:07;0.10;;;0.10;;
13012;SDS011;22580;57.670;12.006;2023-06-04T02:11:35;0.20;;;0.20;;
13012;SDS011;22580;57.670;12.006;2023-06-04T02:14:02;0.10;;;0.10;;
13012;SDS011;22580;57.670;12.006;2023-06-04T02:16:29;0.10;;;0.10;;
13012;SDS011;22580;57.670;12.006;2023-06-04T02:18:55;0.10;;;0.10;;
13012;SDS011;22580;57.670;12.006;2023-06-04T02:21:24;0.20;;;0.20;;
13012;SDS011;22580;57.670;12.006;2023-06-04T02:23:51;0.20;;;0.20;;
13012;SDS011;22580;57.670;12.006;2023-06-04T02:26:18;0.10;;;0.10;;
13012;SDS011;22580;57.670;12.006;2023-06-04T02:28:46;0.10;;;0.10;;
13012;SDS011;22580;57.670;12.006;2023-06-04T02:31:13;0.10;;;0.10;;
13012;SDS011;22580;57.670;12.006;2023-06-04T02:33:40;0.10;;;0.10;;
13012;SDS011;22580;57.670;12.006;2023-06-04T02:36:07;0.20;;;0.20;;
13012;SDS011;22580;57.670;12.006;2023-06-04T02:38:34;0.13;;;0.13;;
13012;SDS011;22580;57.670;12.006;2023-06-04T02:41:01;0.23;;;0.23;;
13012;SDS011;22580;57.670;12.006;2023-06-04T02:43:28;0.20;;;0.20;;
13012;SDS011;22580;57.670;12.006;2023-06-04T02:45:56;0.10;;;0.10;;
13012;SDS011;22580;57.670;12.006;2023-06-04T02:48:23;0.10;;;0.10;;
13012;SDS011;22580;57.670;12.006;2023-06-04T02:50:50;0.10;;;0.10;;
13012;SDS011;22580;57.670;12.006;2023-06-04T02:53:17;0.10;;;0.10;;
13012;SDS011;22580;57.670;12.006;2023-06-04T02:55:44;0.10;;;0.10;;
13012;SDS011;22580;57.670;12.006;2023-06-04T02:58:10;0.10;;;0.10;;
13012;SDS011;22580;57.670;12.006;2023-06-04T03:00:39;0.20;;;0.20;;
13012;SDS011;22580;57.670;12.006;2023-06-04T03:03:08;0.10;;;0.10;;
13012;SDS011;22580;57.670;12.006;2023-06-04T03:05:35;0.10;;;0.10;;
13012;SDS011;22580;57.670;12.006;2023-06-04T03:08:04;0.20;;;0.20;;
13012;SDS011;22580;57.670;12.006;2023-06-04T03:10:31;0.40;;;0.40;;
13012;SDS011;22580;57.670;12.006;2023-06-04T03:12:58;0.20;;;0.20;;
13012;SDS011;22580;57.670;12.006;2023-06-04T03:15:25;0.20;;;0.20;;
13012;SDS011;22580;57.670;12.006;2023-06-04T03:17:52;0.23;;;0.23;;
13012;SDS011;22580;57.670;12.006;2023-06-04T03:20:21;0.20;;;0.20;;
13012;SDS011;22580;57.670;12.006;2023-06-04T03:22:49;0.20;;;0.20;;
13012;SDS011;22580;57.670;12.006;2023-06-04T03:25:16;0.20;;;0.20;;
13012;SDS011;22580;57.670;12.006;2023-06-04T03:27:43;0.10;;;0.10;;
13012;SDS011;22580;57.670;12.006;2023-06-04T03:30:10;0.00;;;0.00;;
13012;SDS011;22580;57.670;12.006;2023-06-04T03:32:37;0.00;;;0.00;;
13012;SDS011;22580;57.670;12.006;2023-06-04T03:35:05;0.10;;;0.10;;
13012;SDS011;22580;57.670;12.006;2023-06-04T03:37:34;0.10;;;0.10;;
13012;SDS011;22580;57.670;12.006;2023-06-04T03:40:01;0.10;;;0.10;;
13012;SDS011;22580;57.670;12.006;2023-06-04T03:42:29;0.00;;;0.00;;
13012;SDS011;22580;57.670;12.006;2023-06-04T03:44:55;0.10;;;0.10;;
13012;SDS011;22580;57.670;12.006;2023-06-04T03:47:23;0.10;;;0.10;;
13012;SDS011;22580;57.670;12.006;2023-06-04T03:49:50;0.10;;;0.10;;
13012;SDS011;22580;57.670;12.006;2023-06-04T03:52:17;0.10;;;0.10;;
13012;SDS011;22580;57.670;12.006;2023-06-04T03:54:45;0.20;;;0.20;;
13012;SDS011;22580;57.670;12.006;2023-06-04T03:57:12;0.20;;;0.20;;
13012;SDS011;22580;57.670;12.006;2023-06-04T03:59:39;0.10;;;0.10;;
13012;SDS011;22580;57.670;12.006;2023-06-04T04:02:05;0.20;;;0.20;;
13012;SDS011;22580;57.670;12.006;2023-06-04T04:04:32;0.30;;;0.30;;
13012;SDS011;22580;57.670;12.006;2023-06-04T04:06:59;0.10;;;0.10;;
13012;SDS011;22580;57.670;12.006;2023-06-04T04:09:27;0.10;;;0.10;;
13012;SDS011;22580;57.670;12.006;2023-06-04T04:11:55;0.10;;;0.10;;
13012;SDS011;22580;57.670;12.006;2023-06-04T04:14:22;0.20;;;0.20;;
13012;SDS011;22580;57.670;12.006;2023-06-04T04:16:49;0.10;;;0.10;;
13012;SDS011;22580;57.670;12.006;2023-06-04T04:19:16;0.10;;;0.10;;
13012;SDS011;22580;57.670;12.006;2023-06-04T04:21:43;0.20;;;0.20;;
13012;SDS011;22580;57.670;12.006;2023-06-04T04:24:21;0.10;;;0.10;;
13012;SDS011;22580;57.670;12.006;2023-06-04T04:26:48;0.07;;;0.07;;
13012;SDS011;22580;57.670;12.006;2023-06-04T04:29:19;0.10;;;0.10;;
13012;SDS011;22580;57.670;12.006;2023-06-04T04:31:48;0.00;;;0.00;;
13012;SDS011;22580;57.670;12.006;2023-06-04T04:34:15;0.10;;;0.10;;
13012;SDS011;22580;57.670;12.006;2023-06-04T04:36:42;0.13;;;0.13;;
13012;SDS011;22580;57.670;12.006;2023-06-04T04:39:09;0.10;;;0.10;;
13012;SDS011;22580;57.670;12.006;2023-06-04T04:41:36;0.10;;;0.10;;
13012;SDS011;22580;57.670;12.006;2023-06-04T04:44:03;0.10;;;0.10;;
13012;SDS011;22580;57.670;12.006;2023-06-04T04:46:33;0.10;;;0.10;;
13012;SDS011;22580;57.670;12.006;2023-06-04T04:49:00;0.10;;;0.10;;
13012;SDS011;22580;57.670;12.006;2023-06-04T04:51:26;0.20;;;0.20;;
13012;SDS011;22580;57.670;12.006;2023-06-04T04:53:53;0.00;;;0.00;;
13012;SDS011;22580;57.670;12.006;2023-06-04T04:56:20;0.10;;;0.10;;
13012;SDS011;22580;57.670;12.006;2023-06-04T04:58:48;0.10;;;0.10;;
13012;SDS011;22580;57.670;12.006;2023-06-04T05:01:15;0.10;;;0.10;;
13012;SDS011;22580;57.670;12.006;2023-06-04T05:03:43;0.10;;;0.10;;
13012;SDS011;22580;57.670;12.006;2023-06-04T05:06:10;0.10;;;0.10;;
13012;SDS011;22580;57.670;12.006;2023-06-04T05:08:38;0.17;;;0.17;;
13012;SDS011;22580;57.670;12.006;2023-06-04T05:11:05;0.20;;;0.20;;
13012;SDS011;22580;57.670;12.006;2023-06-04T05:13:31;0.00;;;0.00;;
13012;SDS011;22580;57.670;12.006;2023-06-04T05:16:00;0.10;;;0.10;;
13012;SDS011;22580;57.670;12.006;2023-06-04T05:18:31;0.10;;;0.10;;
13012;SDS011;22580;57.670;12.006;2023-06-04T05:21:00;0.20;;;0.20;;
13012;SDS011;22580;57.670;12.006;2023-06-04T05:23:27;0.10;;;0.10;;
13012;SDS011;22580;57.670;12.006;2023-06-04T05:25:55;0.10;;;0.10;;
13012;SDS011;22580;57.670;12.006;2023-06-04T05:28:22;0.10;;;0.10;;
13012;SDS011;22580;57.670;12.006;2023-06-04T05:30:49;0.20;;;0.20;;
13012;SDS011;22580;57.670;12.006;2023-06-04T05:33:18;0.30;;;0.30;;
13012;SDS011;22580;57.670;12.006;2023-06-04T05:35:45;0.30;;;0.30;;
13012;SDS011;22580;57.670;12.006;2023-06-04T05:38:14;0.30;;;0.30;;
13012;SDS011;22580;57.670;12.006;2023-06-04T05:40:42;0.30;;;0.30;;
13012;SDS011;22580;57.670;12.006;2023-06-04T05:43:09;0.40;;;0.40;;
13012;SDS011;22580;57.670;12.006;2023-06-04T05:45:37;0.40;;;0.40;;
13012;SDS011;22580;57.670;12.006;2023-06-04T05:48:04;0.50;;;0.50;;
13012;SDS011;22580;57.670;12.006;2023-06-04T05:50:31;0.50;;;0.50;;
13012;SDS011;22580;57.670;12.006;2023-06-04T05:52:58;0.40;;;0.40;;
13012;SDS011;22580;57.670;12.006;2023-06-04T05:55:27;0.50;;;0.50;;
13012;SDS011;22580;57.670;12.006;2023-06-04T05:57:55;0.65;;;0.65;;
13012;SDS011;22580;57.670;12.006;2023-06-04T06:00:22;0.88;;;0.70;;
13012;SDS011;22580;57.670;12.006;2023-06-04T06:02:49;0.70;;;0.70;;
13012;SDS011;22580;57.670;12.006;2023-06-04T06:05:17;0.70;;;0.70;;
13012;SDS011;22580;57.670;12.006;2023-06-04T06:07:45;1.02;;;0.80;;
13012;SDS011;22580;57.670;12.006;2023-06-04T06:10:12;0.70;;;0.70;;
13012;SDS011;22580;57.670;12.006;2023-06-04T06:12:42;1.02;;;0.93;;
13012;SDS011;22580;57.670;12.006;2023-06-04T06:15:09;0.93;;;0.93;;
13012;SDS011;22580;57.670;12.006;2023-06-04T06:17:37;1.60;;;1.02;;
13012;SDS011;22580;57.670;12.006;2023-06-04T06:20:05;0.93;;;0.80;;
13012;SDS011;22580;57.670;12.006;2023-06-04T06:22:33;1.23;;;0.90;;
13012;SDS011;22580;57.670;12.006;2023-06-04T06:25:00;2.53;;;1.48;;
13012;SDS011;22580;57.670;12.006;2023-06-04T06:27:28;2.28;;;1.55;;
13012;SDS011;22580;57.670;12.006;2023-06-04T06:29:56;3.42;;;1.67;;
13012;SDS011;22580;57.670;12.006;2023-06-04T06:32:23;1.90;;;1.50;;
13012;SDS011;22580;57.670;12.006;2023-06-04T06:34:50;1.55;;;1.38;;
13012;SDS011;22580;57.670;12.006;2023-06-04T06:37:18;2.15;;;1.42;;
13012;SDS011;22580;57.670;12.006;2023-06-04T06:39:48;1.98;;;1.05;;
13012;SDS011;22580;57.670;12.006;2023-06-04T06:42:15;2.13;;;1.35;;
13012;SDS011;22580;57.670;12.006;2023-06-04T06:44:43;1.08;;;1.00;;
13012;SDS011;22580;57.670;12.006;2023-06-04T06:47:12;2.38;;;1.80;;
13012;SDS011;22580;57.670;12.006;2023-06-04T06:49:39;1.95;;;1.63;;
13012;SDS011;22580;57.670;12.006;2023-06-04T06:52:06;3.10;;;1.90;;
13012;SDS011;22580;57.670;12.006;2023-06-04T06:54:33;2.13;;;1.45;;
13012;SDS011;22580;57.670;12.006;2023-06-04T06:57:01;2.50;;;1.75;;
13012;SDS011;22580;57.670;12.006;2023-06-04T06:59:33;3.20;;;1.55;;
13012;SDS011;22580;57.670;12.006;2023-06-04T07:02:03;1.58;;;1.45;;
13012;SDS011;22580;57.670;12.006;2023-06-04T07:04:32;1.85;;;1.30;;
13012;SDS011;22580;57.670;12.006;2023-06-04T07:07:00;2.58;;;1.30;;
13012;SDS011;22580;57.670;12.006;2023-06-04T07:09:28;1.17;;;1.08;;
13012;SDS011;22580;57.670;12.006;2023-06-04T07:11:55;0.90;;;0.90;;
13012;SDS011;22580;57.670;12.006;2023-06-04T07:14:22;1.83;;;1.20;;
13012;SDS011;22580;57.670;12.006;2023-06-04T07:16:49;1.77;;;1.52;;
13012;SDS011;22580;57.670;12.006;2023-06-04T07:19:16;2.20;;;1.73;;
13012;SDS011;22580;57.670;12.006;2023-06-04T07:21:44;3.42;;;1.98;;
13012;SDS011;22580;57.670;12.006;2023-06-04T07:24:11;2.80;;;1.70;;
13012;SDS011;22580;57.670;12.006;2023-06-04T07:26:38;1.50;;;1.40;;
13012;SDS011;22580;57.670;12.006;2023-06-04T07:29:05;1.92;;;1.50;;
13012;SDS011;22580;57.670;12.006;2023-06-04T07:31:32;1.85;;;1.40;;
13012;SDS011;22580;57.670;12.006;2023-06-04T07:34:00;1.90;;;1.65;;
13012;SDS011;22580;57.670;12.006;2023-06-04T07:36:26;1.88;;;1.50;;
13012;SDS011;22580;57.670;12.006;2023-06-04T07:38:55;1.35;;;1.10;;
13012;SDS011;22580;57.670;12.006;2023-06-04T07:41:22;1.20;;;1.08;;
13012;SDS011;22580;57.670;12.006;2023-06-04T07:43:51;1.05;;;1.00;;
13012;SDS011;22580;57.670;12.006;2023-06-04T07:46:18;1.67;;;1.25;;
13012;SDS011;22580;57.670;12.006;2023-06-04T07:48:45;1.83;;;1.27;;
13012;SDS011;22580;57.670;12.006;2023-06-04T07:51:12;0.90;;;0.90;;
13012;SDS011;22580;57.670;12.006;2023-06-04T07:53:40;0.95;;;0.93;;
13012;SDS011;22580;57.670;12.006;2023-06-04T07:56:10;1.33;;;1.02;;
13012;SDS011;22580;57.670;12.006;2023-06-04T07:58:37;1.73;;;1.27;;
13012;SDS011;22580;57.670;12.006;2023-06-04T08:01:04;1.13;;;1.00;;
13012;SDS011;22580;57.670;12.006;2023-06-04T08:03:31;2.25;;;1.75;;
13012;SDS011;22580;57.670;12.006;2023-06-04T08:05:58;1.83;;;1.70;;
13012;SDS011;22580;57.670;12.006;2023-06-04T08:08:25;2.17;;;1.55;;
13012;SDS011;22580;57.670;12.006;2023-06-04T08:10:52;1.58;;;1.48;;
13012;SDS011;22580;57.670;12.006;2023-06-04T08:13:21;1.58;;;1.13;;
13012;SDS011;22580;57.670;12.006;2023-06-04T08:15:47;1.30;;;1.20;;
13012;SDS011;22580;57.670;12.006;2023-06-04T08:18:15;1.00;;;1.00;;
13012;SDS011;22580;57.670;12.006;2023-06-04T08:20:42;0.80;;;0.80;;
13012;SDS011;22580;57.670;12.006;2023-06-04T08:23:09;0.70;;;0.70;;
13012;SDS011;22580;57.670;12.006;2023-06-04T08:25:36;0.80;;;0.80;;
13012;SDS011;22580;57.670;12.006;2023-06-04T08:28:02;1.27;;;1.15;;
13012;SDS011;22580;57.670;12.006;2023-06-04T08:30:31;1.95;;;1.15;;
13012;SDS011;22580;57.670;12.006;2023-06-04T08:33:01;1.33;;;1.23;;
13012;SDS011;22580;57.670;12.006;2023-06-04T08:35:28;2.83;;;1.50;;
13012;SDS011;22580;57.670;12.006;2023-06-04T08:37:55;0.80;;;0.80;;
13012;SDS011;22580;57.670;12.006;2023-06-04T08:40:21;1.23;;;1.05;;
13012;SDS011;22580;57.670;12.006;2023-06-04T08:42:48;0.80;;;0.80;;
13012;SDS011;22580;57.670;12.006;2023-06-04T08:45:17;0.90;;;0.90;;
13012;SDS011;22580;57.670;12.006;2023-06-04T08:47:49;1.25;;;1.15;;
13012;SDS011;22580;57.670;12.006;2023-06-04T08:50:17;2.05;;;1.30;;
13012;SDS011;22580;57.670;12.006;2023-06-04T08:52:45;0.90;;;0.90;;
13012;SDS011;22580;57.670;12.006;2023-06-04T08:55:12;0.70;;;0.70;;
13012;SDS011;22580;57.670;12.006;2023-06-04T08:57:40;0.80;;;0.80;;
13012;SDS011;22580;57.670;12.006;2023-06-04T09:00:08;0.73;;;0.73;;
13012;SDS011;22580;57.670;12.006;2023-06-04T09:02:36;0.82;;;0.82;;
13012;SDS011;22580;57.670;12.006;2023-06-04T09:05:06;0.90;;;0.90;;
13012;SDS011;22580;57.670;12.006;2023-06-04T09:07:35;0.75;;;0.75;;
13012;SDS011;22580;57.670;12.006;2023-06-04T09:10:04;2.15;;;1.50;;
13012;SDS011;22580;57.670;12.006;2023-06-04T09:12:33;1.60;;;1.48;;
13012;SDS011;22580;57.670;12.006;2023-06-04T09:15:03;1.50;;;1.40;;
13012;SDS011;22580;57.670;12.006;2023-06-04T09:17:30;1.17;;;1.08;;
13012;SDS011;22580;57.670;12.006;2023-06-04T09:19:57;0.60;;;0.57;;
13012;SDS011;22580;57.670;12.006;2023-06-04T09:22:32;0.95;;;0.95;;
13012;SDS011;22580;57.670;12.006;2023-06-04T09:25:01;1.20;;;1.00;;
13012;SDS011;22580;57.670;12.006;2023-06-04T09:27:37;1.65;;;1.17;;
13012;SDS011;22580;57.670;12.006;2023-06-04T09:30:04;1.33;;;1.10;;
13012;SDS011;22580;57.670;12.006;2023-06-04T09:32:33;1.05;;;1.05;;
13012;SDS011;22580;57.670;12.006;2023-06-04T09:35:08;1.10;;;1.00;;
13012;SDS011;22580;57.670;12.006;2023-06-04T09:37:39;1.10;;;1.00;;
13012;SDS011;22580;57.670;12.006;2023-06-04T09:40:07;1.63;;;1.33;;
13012;SDS011;22580;57.670;12.006;2023-06-04T09:42:43;1.30;;;1.20;;
13012;SDS011;22580;57.670;12.006;2023-06-04T09:45:11;1.00;;;1.00;;
13012;SDS011;22580;57.670;12.006;2023-06-04T09:47:39;0.93;;;0.82;;
13012;SDS011;22580;57.670;12.006;2023-06-04T09:50:08;0.68;;;0.68;;
13012;SDS011;22580;57.670;12.006;2023-06-04T09:52:35;0.80;;;0.70;;
13012;SDS011;22580;57.670;12.006;2023-06-04T09:55:04;0.90;;;0.90;;
13012;SDS011;22580;57.670;12.006;2023-06-04T09:57:44;1.15;;;0.73;;
13012;SDS011;22580;57.670;12.006;2023-06-04T10:00:14;0.85;;;0.82;;
13012;SDS011;22580;57.670;12.006;2023-06-04T10:02:43;0.80;;;0.80;;
13012;SDS011;22580;57.670;12.006;2023-06-04T10:05:11;1.15;;;1.08;;
13012;SDS011;22580;57.670;12.006;2023-06-04T10:07:39;0.80;;;0.80;;
13012;SDS011;22580;57.670;12.006;2023-06-04T10:10:11;0.98;;;0.85;;
13012;SDS011;22580;57.670;12.006;2023-06-04T10:12:42;1.02;;;0.93;;
13012;SDS011;22580;57.670;12.006;2023-06-04T10:15:10;1.67;;;1.30;;
13012;SDS011;22580;57.670;12.006;2023-06-04T10:17:38;1.17;;;1.02;;
13012;SDS011;22580;57.670;12.006;2023-06-04T10:20:06;1.13;;;1.00;;
13012;SDS011;22580;57.670;12.006;2023-06-04T10:22:35;1.30;;;1.20;;
13012;SDS011;22580;57.670;12.006;2023-06-04T10:25:03;1.60;;;1.38;;
13012;SDS011;22580;57.670;12.006;2023-06-04T10:27:32;1.30;;;1.20;;
13012;SDS011;22580;57.670;12.006;2023-06-04T10:30:01;1.00;;;1.00;;
13012;SDS011;22580;57.670;12.006;2023-06-04T10:32:29;0.70;;;0.70;;
13012;SDS011;22580;57.670;12.006;2023-06-04T10:34:57;0.90;;;0.90;;
13012;SDS011;22580;57.670;12.006;2023-06-04T10:37:26;1.30;;;1.20;;
13012;SDS011;22580;57.670;12.006;2023-06-04T10:39:55;1.17;;;1.17;;
13012;SDS011;22580;57.670;12.006;2023-06-04T10:42:23;1.30;;;1.20;;
13012;SDS011;22580;57.670;12.006;2023-06-04T10:44:52;1.50;;;1.30;;
13012;SDS011;22580;57.670;12.006;2023-06-04T10:47:20;0.85;;;0.82;;
13012;SDS011;22580;57.670;12.006;2023-06-04T10:49:49;0.85;;;0.85;;
13012;SDS011;22580;57.670;12.006;2023-06-04T10:52:17;0.90;;;0.90;;
13012;SDS011;22580;57.670;12.006;2023-06-04T10:54:45;0.80;;;0.80;;
13012;SDS011;22580;57.670;12.006;2023-06-04T10:57:14;2.20;;;1.90;;
13012;SDS011;22580;57.670;12.006;2023-06-04T10:59:54;1.90;;;1.65;;
13012;SDS011;22580;57.670;12.006;2023-06-04T11:02:21;1.85;;;1.75;;
13012;SDS011;22580;57.670;12.006;2023-06-04T11:04:58;1.60;;;1.33;;
13012;SDS011;22580;57.670;12.006;2023-06-04T11:07:28;1.40;;;1.17;;
13012;SDS011;22580;57.670;12.006;2023-06-04T11:09:55;1.20;;;1.10;;
13012;SDS011;22580;57.670;12.006;2023-06-04T11:12:22;0.80;;;0.80;;
13012;SDS011;22580;57.670;12.006;2023-06-04T11:14:56;1.02;;;1.02;;
13012;SDS011;22580;57.670;12.006;2023-06-04T11:17:24;1.17;;;1.05;;
13012;SDS011;22580;57.670;12.006;2023-06-04T11:19:51;2.13;;;1.30;;
13012;SDS011;22580;57.670;12.006;2023-06-04T11:22:20;1.60;;;1.40;;
13012;SDS011;22580;57.670;12.006;2023-06-04T11:24:48;1.70;;;1.60;;
13012;SDS011;22580;57.670;12.006;2023-06-04T11:27:17;2.30;;;1.50;;
13012;SDS011;22580;57.670;12.006;2023-06-04T11:29:48;3.38;;;2.10;;
13012;SDS011;22580;57.670;12.006;2023-06-04T11:32:22;2.83;;;1.73;;
13012;SDS011;22580;57.670;12.006;2023-06-04T11:34:49;3.13;;;2.03;;
13012;SDS011;22580;57.670;12.006;2023-06-04T11:37:16;4.22;;;1.70;;
13012;SDS011;22580;57.670;12.006;2023-06-04T11:39:43;3.00;;;1.90;;
13012;SDS011;22580;57.670;12.006;2023-06-04T11:42:10;3.10;;;1.83;;
13012;SDS011;22580;57.670;12.006;2023-06-04T11:44:37;2.22;;;1.70;;
13012;SDS011;22580;57.670;12.006;2023-06-04T11:47:10;1.88;;;1.63;;
13012;SDS011;22580;57.670;12.006;2023-06-04T11:49:39;4.53;;;2.15;;
13012;SDS011;22580;57.670;12.006;2023-06-04T11:52:08;4.88;;;1.83;;
13012;SDS011;22580;57.670;12.006;2023-06-04T11:54:35;2.70;;;1.67;;
13012;SDS011;22580;57.670;12.006;2023-06-04T11:57:03;3.50;;;1.65;;
13012;SDS011;22580;57.670;12.006;2023-06-04T11:59:31;2.90;;;1.70;;
13012;SDS011;22580;57.670;12.006;2023-06-04T12:01:58;2.08;;;1.67;;
13012;SDS011;22580;57.670;12.006;2023-06-04T12:04:29;1.70;;;1.60;;
13012;SDS011;22580;57.670;12.006;2023-06-04T12:06:58;2.47;;;1.73;;
13012;SDS011;22580;57.670;12.006;2023-06-04T12:09:27;1.85;;;1.48;;
13012;SDS011;22580;57.670;12.006;2023-06-04T12:11:59;3.08;;;1.60;;
13012;SDS011;22580;57.670;12.006;2023-06-04T12:14:28;2.20;;;1.50;;
13012;SDS011;22580;57.670;12.006;2023-06-04T12:16:55;2.53;;;1.60;;
13012;SDS011;22580;57.670;12.006;2023-06-04T12:19:23;3.03;;;1.80;;
13012;SDS011;22580;57.670;12.006;2023-06-04T12:24:34;2.67;;;1.70;;
13012;SDS011;22580;57.670;12.006;2023-06-04T12:27:12;2.03;;;1.60;;
13012;SDS011;22580;57.670;12.006;2023-06-04T12:29:39;2.05;;;1.63;;
13012;SDS011;22580;57.670;12.006;2023-06-04T12:32:09;1.98;;;1.85;;
13012;SDS011;22580;57.670;12.006;2023-06-04T12:34:38;3.47;;;2.08;;
13012;SDS011;22580;57.670;12.006;2023-06-04T12:37:05;2.83;;;1.67;;
13012;SDS011;22580;57.670;12.006;2023-06-04T12:39:35;1.33;;;1.23;;
13012;SDS011;22580;57.670;12.006;2023-06-04T12:42:03;2.78;;;2.10;;
13012;SDS011;22580;57.670;12.006;2023-06-04T12:44:31;2.47;;;1.70;;
13012;SDS011;22580;57.670;12.006;2023-06-04T12:46:58;2.85;;;1.80;;
13012;SDS011;22580;57.670;12.006;2023-06-04T12:49:25;3.28;;;1.63;;
13012;SDS011;22580;57.670;12.006;2023-06-04T12:51:52;2.78;;;1.88;;
13012;SDS011;22580;57.670;12.006;2023-06-04T12:54:20;2.97;;;1.73;;
13012;SDS011;22580;57.670;12.006;2023-06-04T12:56:47;1.77;;;1.58;;
13012;SDS011;22580;57.670;12.006;2023-06-04T12:59:15;1.92;;;1.50;;
13012;SDS011;22580;57.670;12.006;2023-06-04T13:01:42;2.55;;;1.52;;
13012;SDS011;22580;57.670;12.006;2023-06-04T13:04:09;2.90;;;1.98;;
13012;SDS011;22580;57.670;12.006;2023-06-04T13:06:37;3.15;;;1.70;;
13012;SDS011;22580;57.670;12.006;2023-06-04T13:09:04;2.25;;;1.50;;
13012;SDS011;22580;57.670;12.006;2023-06-04T13:11:36;3.30;;;1.90;;
13012;SDS011;22580;57.670;12.006;2023-06-04T13:14:04;3.85;;;2.13;;
13012;SDS011;22580;57.670;12.006;2023-06-04T13:16:31;1.85;;;1.55;;
13012;SDS011;22580;57.670;12.006;2023-06-04T13:18:58;3.60;;;1.92;;
13012;SDS011;22580;57.670;12.006;2023-06-04T13:21:25;3.53;;;1.98;;
13012;SDS011;22580;57.670;12.006;2023-06-04T13:23:52;1.80;;;1.52;;
13012;SDS011;22580;57.670;12.006;2023-06-04T13:26:19;2.45;;;1.45;;
13012;SDS011;22580;57.670;12.006;2023-06-04T13:28:48;3.88;;;1.77;;
13012;SDS011;22580;57.670;12.006;2023-06-04T13:31:15;2.20;;;1.40;;
13012;SDS011;22580;57.670;12.006;2023-06-04T13:33:43;1.33;;;1.05;;
13012;SDS011;22580;57.670;12.006;2023-06-04T13:36:10;1.38;;;1.25;;
13012;SDS011;22580;57.670;12.006;2023-06-04T13:38:37;2.25;;;1.30;;
13012;SDS011;22580;57.670;12.006;2023-06-04T13:41:03;1.80;;;1.60;;
13012;SDS011;22580;57.670;12.006;2023-06-04T13:43:30;2.72;;;1.65;;
13012;SDS011;22580;57.670;12.006;2023-06-04T13:45:59;1.92;;;1.60;;
13012;SDS011;22580;57.670;12.006;2023-06-04T13:48:26;1.75;;;1.48;;
13012;SDS011;22580;57.670;12.006;2023-06-04T13:50:53;1.83;;;1.48;;
13012;SDS011;22580;57.670;12.006;2023-06-04T13:53:20;1.92;;;1.20;;
13012;SDS011;22580;57.670;12.006;2023-06-04T13:55:47;1.98;;;1.40;;
13012;SDS011;22580;57.670;12.006;2023-06-04T13:58:14;1.52;;;1.40;;
13012;SDS011;22580;57.670;12.006;2023-06-04T14:00:58;1.10;;;1.10;;
13012;SDS011;22580;57.670;12.006;2023-06-04T14:07:29;1.33;;;1.00;;
13012;SDS011;22580;57.670;12.006;2023-06-04T14:09:57;1.38;;;1.25;;
13012;SDS011;22580;57.670;12.006;2023-06-04T14:15:20;1.35;;;1.10;;
13012;SDS011;22580;57.670;12.006;2023-06-04T14:17:49;0.80;;;0.80;;
13012;SDS011;22580;57.670;12.006;2023-06-04T14:20:34;1.38;;;1.10;;
13012;SDS011;22580;57.670;12.006;2023-06-04T14:23:14;1.30;;;1.20;;
13012;SDS011;22580;57.670;12.006;2023-06-04T14:25:41;1.55;;;1.27;;
13012;SDS011;22580;57.670;12.006;2023-06-04T14:28:21;1.42;;;1.33;;
13012;SDS011;22580;57.670;12.006;2023-06-04T14:31:07;1.30;;;1.20;;
13012;SDS011;22580;57.670;12.006;2023-06-04T14:33:34;1.25;;;1.15;;
13012;SDS011;22580;57.670;12.006;2023-06-04T14:36:02;0.80;;;0.80;;
13012;SDS011;22580;57.670;12.006;2023-06-04T14:38:30;1.05;;;1.05;;
13012;SDS011;22580;57.670;12.006;2023-06-04T14:41:01;1.17;;;1.10;;
13012;SDS011;22580;57.670;12.006;2023-06-04T14:43:27;1.02;;;1.00;;
13012;SDS011;22580;57.670;12.006;2023-06-04T14:45:57;1.40;;;1.13;;
13012;SDS011;22580;57.670;12.006;2023-06-04T14:48:24;1.30;;;1.20;;
13012;SDS011;22580;57.670;12.006;2023-06-04T14:50:51;0.98;;;0.95;;